createdAt,value
2018-05-23T00:00:15.552Z,99.90
2018-05-23T00:02:43.285Z,99.90
2018-05-23T00:05:11.022Z,99.90
2018-05-23T00:07:38.808Z,99.90
2018-05-23T00:10:06.577Z,99.90
2018-05-23T00:12:34.313Z,99.90
2018-05-23T00:15:02.105Z,99.90
2018-05-23T00:17:29.869Z,99.90
2018-05-23T00:19:57.634Z,99.90
2018-05-23T00:22:25.372Z,99.90
2018-05-23T00:24:53.113Z,99.90
2018-05-23T00:27:21.608Z,99.90
2018-05-23T00:29:49.355Z,99.90
2018-05-23T00:32:17.932Z,99.90
2018-05-23T00:34:46.440Z,99.90
2018-05-23T00:37:14.180Z,99.90
2018-05-23T00:39:42.686Z,99.90
2018-05-23T00:42:10.427Z,99.90
2018-05-23T00:44:38.967Z,99.90
2018-05-23T00:47:06.700Z,99.90
2018-05-23T00:49:34.436Z,99.90
2018-05-23T00:52:02.941Z,99.90
2018-05-23T00:54:30.704Z,99.90
2018-05-23T00:56:58.565Z,99.90
2018-05-23T00:59:26.288Z,99.90
2018-05-23T01:01:54.044Z,99.90
2018-05-23T01:04:21.839Z,99.90
2018-05-23T01:06:50.348Z,99.80
2018-05-23T01:09:18.147Z,99.80
2018-05-23T01:11:45.894Z,99.90
2018-05-23T01:14:14.400Z,99.90
2018-05-23T01:16:42.130Z,99.90
2018-05-23T01:19:09.877Z,99.90
2018-05-23T01:21:37.676Z,99.90
2018-05-23T01:24:05.425Z,99.90
2018-05-23T01:26:33.163Z,99.90
2018-05-23T01:29:01.661Z,99.90
2018-05-23T01:31:29.412Z,99.80
2018-05-23T01:33:57.150Z,99.80
2018-05-23T01:36:24.901Z,99.70
2018-05-23T01:38:52.633Z,99.50
2018-05-23T01:41:21.176Z,99.20
2018-05-23T01:43:49.726Z,98.90
2018-05-23T01:46:17.510Z,98.90
2018-05-23T01:48:57.740Z,98.10
2018-05-23T01:51:25.472Z,98.10
2018-05-23T01:53:53.212Z,97.80
2018-05-23T01:56:20.941Z,97.70
2018-05-23T01:58:48.680Z,97.30
2018-05-23T02:01:16.457Z,96.90
2018-05-23T02:03:44.193Z,96.70
2018-05-23T02:06:11.956Z,96.40
2018-05-23T02:08:39.684Z,96.10
2018-05-23T02:11:08.232Z,95.90
2018-05-23T02:13:35.960Z,95.80
2018-05-23T02:16:03.706Z,95.40
2018-05-23T02:18:31.444Z,94.90
2018-05-23T02:20:59.945Z,94.30
2018-05-23T02:23:27.737Z,94.40
2018-05-23T02:25:55.469Z,94.00
2018-05-23T02:28:23.973Z,93.00
2018-05-23T02:30:51.703Z,93.00
2018-05-23T02:33:19.515Z,92.60
2018-05-23T02:35:47.283Z,92.10
2018-05-23T02:38:15.901Z,91.60
2018-05-23T02:40:43.624Z,91.60
2018-05-23T02:43:11.351Z,91.20
2018-05-23T02:45:39.852Z,91.00
2018-05-23T02:48:07.591Z,91.00
2018-05-23T02:50:36.112Z,90.90
2018-05-23T02:53:03.877Z,90.90
2018-05-23T02:55:31.617Z,90.90
2018-05-23T02:57:59.428Z,90.50
2018-05-23T03:00:27.196Z,90.30
2018-05-23T03:02:54.992Z,90.20
2018-05-23T03:05:23.512Z,89.90
2018-05-23T03:07:51.286Z,89.90
2018-05-23T03:10:19.059Z,90.00
2018-05-23T03:12:46.815Z,89.70
2018-05-23T03:15:14.577Z,89.30
2018-05-23T03:17:42.309Z,89.10
2018-05-23T03:20:10.070Z,88.60
2018-05-23T03:22:37.808Z,88.70
2018-05-23T03:25:06.337Z,88.20
2018-05-23T03:27:34.852Z,88.00
2018-05-23T03:30:02.639Z,88.00
2018-05-23T03:32:31.149Z,88.20
2018-05-23T03:34:58.898Z,88.30
2018-05-23T03:37:27.417Z,87.10
2018-05-23T03:39:55.151Z,87.10
2018-05-23T03:42:22.896Z,87.10
2018-05-23T03:44:51.406Z,87.30
2018-05-23T03:47:19.176Z,87.20
2018-05-23T03:49:46.911Z,87.50
2018-05-23T03:52:14.670Z,87.70
2018-05-23T03:54:43.176Z,87.10
2018-05-23T03:57:10.910Z,87.10
2018-05-23T03:59:51.726Z,87.10
2018-05-23T04:02:31.293Z,87.10
2018-05-23T04:05:10.873Z,86.70
2018-05-23T04:07:39.684Z,86.50
2018-05-23T04:10:07.437Z,86.10
2018-05-23T04:12:35.177Z,85.70
2018-05-23T04:15:03.801Z,84.60
2018-05-23T04:17:31.518Z,84.50
2018-05-23T04:19:59.286Z,84.40
2018-05-23T04:22:27.804Z,85.00
2018-05-23T04:24:55.611Z,85.60
2018-05-23T04:27:23.336Z,84.70
2018-05-23T04:29:51.073Z,84.70
2018-05-23T04:32:19.573Z,84.90
2018-05-23T04:34:47.325Z,84.90
2018-05-23T04:37:15.056Z,85.00
2018-05-23T04:39:42.789Z,84.80
2018-05-23T04:42:10.520Z,84.40
2018-05-23T04:44:38.295Z,84.00
2018-05-23T04:47:06.047Z,83.40
2018-05-23T04:49:33.790Z,83.30
2018-05-23T04:55:32.612Z,82.70
2018-05-23T04:58:00.328Z,82.60
2018-05-23T05:00:28.861Z,81.90
2018-05-23T05:02:56.596Z,81.90
2018-05-23T05:05:24.325Z,81.70
2018-05-23T05:07:52.051Z,81.50
2018-05-23T05:10:19.836Z,81.20
2018-05-23T05:12:47.600Z,81.20
2018-05-23T05:15:16.097Z,81.60
2018-05-23T05:17:44.584Z,80.30
2018-05-23T05:20:13.079Z,79.70
2018-05-23T05:22:40.814Z,79.70
2018-05-23T05:25:09.335Z,80.10
2018-05-23T05:27:37.136Z,80.00
2018-05-23T05:30:05.001Z,80.50
2018-05-23T05:32:32.724Z,80.50
2018-05-23T05:35:00.479Z,79.40
2018-05-23T05:37:28.265Z,79.00
2018-05-23T05:39:55.999Z,73.40
2018-05-23T05:42:24.509Z,74.30
2018-05-23T05:44:52.277Z,74.40
2018-05-23T05:47:20.001Z,73.50
2018-05-23T05:49:48.566Z,73.60
2018-05-23T05:52:16.280Z,73.50
2018-05-23T05:54:44.000Z,73.70
2018-05-23T05:57:12.506Z,70.70
2018-05-23T05:59:40.241Z,70.60
2018-05-23T06:02:08.054Z,69.00
2018-05-23T06:04:36.549Z,66.30
2018-05-23T06:07:04.266Z,66.30
2018-05-23T06:09:32.849Z,66.00
2018-05-23T06:12:00.504Z,66.00
2018-05-23T06:14:29.003Z,65.00
2018-05-23T06:16:56.810Z,64.90
2018-05-23T06:19:24.549Z,65.30
2018-05-23T06:21:52.280Z,65.50
2018-05-23T06:24:20.774Z,64.30
2018-05-23T06:26:48.532Z,64.20
2018-05-23T06:29:16.274Z,64.30
2018-05-23T06:31:43.996Z,63.80
2018-05-23T06:34:11.732Z,63.30
2018-05-23T06:36:39.477Z,63.20
2018-05-23T06:39:07.964Z,62.30
2018-05-23T06:41:36.601Z,60.20
2018-05-23T06:44:04.324Z,60.20
2018-05-23T06:46:32.069Z,60.30
2018-05-23T06:48:59.837Z,59.90
2018-05-23T06:51:28.332Z,59.80
2018-05-23T06:53:56.097Z,59.80
2018-05-23T06:56:23.812Z,58.70
2018-05-23T06:58:51.520Z,59.00
2018-05-23T07:01:19.269Z,57.40
2018-05-23T07:03:47.767Z,53.40
2018-05-23T07:06:15.471Z,53.40
2018-05-23T07:08:43.204Z,53.90
2018-05-23T07:11:10.931Z,54.00
2018-05-23T07:13:38.685Z,52.70
2018-05-23T07:16:06.464Z,54.00
2018-05-23T07:18:34.980Z,54.20
2018-05-23T07:21:02.683Z,54.20
2018-05-23T07:23:30.464Z,54.80
2018-05-23T07:25:58.309Z,54.90
2018-05-23T07:28:26.733Z,51.40
2018-05-23T07:30:55.240Z,58.00
2018-05-23T07:33:22.946Z,58.00
2018-05-23T07:35:50.676Z,57.40
2018-05-23T07:38:18.447Z,60.80
2018-05-23T07:40:46.203Z,56.80
2018-05-23T07:43:13.911Z,60.30
2018-05-23T07:45:42.412Z,51.20
2018-05-23T07:48:10.134Z,51.20
2018-05-23T07:50:37.838Z,53.70
2018-05-23T07:53:05.572Z,58.60
2018-05-23T07:55:33.275Z,53.50
2018-05-23T07:58:01.005Z,55.90
2018-05-23T08:00:29.520Z,55.80
2018-05-23T08:02:57.240Z,55.90
2018-05-23T08:05:24.985Z,59.20
2018-05-23T08:07:52.703Z,56.20
2018-05-23T08:10:20.501Z,53.10
2018-05-23T08:12:48.264Z,52.80
2018-05-23T08:15:16.010Z,53.50
2018-05-23T08:17:43.712Z,55.10
2018-05-23T08:20:11.412Z,49.40
2018-05-23T08:22:39.903Z,50.00
2018-05-23T08:25:07.612Z,50.00
2018-05-23T08:27:35.308Z,47.70
2018-05-23T08:30:03.844Z,51.10
2018-05-23T08:32:31.541Z,51.10
2018-05-23T08:34:59.288Z,50.20
2018-05-23T08:37:27.040Z,50.50
2018-05-23T08:39:55.060Z,50.90
2018-05-23T08:42:23.576Z,49.40
2018-05-23T08:44:51.314Z,49.40
2018-05-23T08:47:19.023Z,48.40
2018-05-23T08:49:46.740Z,47.90
2018-05-23T08:52:14.443Z,49.00
2018-05-23T08:54:42.144Z,50.40
2018-05-23T08:57:10.639Z,51.50
2018-05-23T08:59:38.364Z,51.50
2018-05-23T09:02:06.110Z,53.40
2018-05-23T09:04:33.846Z,51.00
2018-05-23T09:07:01.576Z,49.20
2018-05-23T09:09:30.048Z,50.50
2018-05-23T09:11:57.803Z,50.50
2018-05-23T09:14:25.527Z,52.50
2018-05-23T09:16:53.276Z,51.90
2018-05-23T09:19:21.020Z,49.80
2018-05-23T09:21:49.476Z,51.30
2018-05-23T09:24:17.194Z,51.30
2018-05-23T09:26:45.011Z,53.00
2018-05-23T09:29:13.567Z,53.70
2018-05-23T09:31:41.264Z,53.70
2018-05-23T09:34:09.767Z,51.50
2018-05-23T09:36:37.496Z,51.50
2018-05-23T09:39:06.251Z,52.90
2018-05-23T09:41:34.039Z,53.00
2018-05-23T09:44:01.974Z,51.50
2018-05-23T09:46:29.776Z,52.20
2018-05-23T09:48:58.332Z,52.00
2018-05-23T09:51:26.097Z,52.70
2018-05-23T09:53:53.893Z,51.20
2018-05-23T09:56:22.421Z,51.90
2018-05-23T09:58:50.137Z,51.80
2018-05-23T10:01:17.925Z,51.90
2018-05-23T10:03:46.487Z,51.50
2018-05-23T10:06:15.015Z,52.90
2018-05-23T10:08:42.707Z,52.70
2018-05-23T10:11:10.435Z,51.90
2018-05-23T10:13:38.272Z,53.90
2018-05-23T10:16:06.809Z,51.30
2018-05-23T10:18:34.524Z,51.40
2018-05-23T10:21:02.984Z,52.70
2018-05-23T10:23:30.778Z,52.70
2018-05-23T10:25:58.473Z,54.50
2018-05-23T10:28:26.192Z,51.30
2018-05-23T10:30:53.928Z,52.90
2018-05-23T10:33:21.662Z,53.10
2018-05-23T10:35:49.396Z,54.60
2018-05-23T10:38:17.140Z,51.90
2018-05-23T10:40:45.646Z,49.30
2018-05-23T10:43:13.344Z,49.20
2018-05-23T10:45:41.063Z,53.00
2018-05-23T10:48:08.777Z,51.70
2018-05-23T10:50:36.491Z,52.60
2018-05-23T10:53:04.238Z,52.20
2018-05-23T10:55:32.704Z,54.60
2018-05-23T10:58:01.184Z,54.60
2018-05-23T11:00:28.901Z,54.50
2018-05-23T11:02:56.657Z,51.70
2018-05-23T11:05:24.394Z,52.00
2018-05-23T11:07:52.153Z,51.70
2018-05-23T11:10:20.622Z,48.60
2018-05-23T11:12:48.345Z,48.70
2018-05-23T11:15:16.285Z,44.00
2018-05-23T11:17:43.974Z,46.10
2018-05-23T11:20:11.663Z,44.40
2018-05-23T11:22:39.668Z,43.70
2018-05-23T11:25:07.448Z,43.20
2018-05-23T11:27:35.176Z,44.40
2018-05-23T11:30:03.759Z,46.60
2018-05-23T11:35:06.228Z,46.20
2018-05-23T11:37:33.927Z,44.10
2018-05-23T11:40:02.396Z,41.70
2018-05-23T11:42:30.884Z,44.20
2018-05-23T11:44:59.360Z,45.40
2018-05-23T11:47:27.084Z,45.40
2018-05-23T11:49:54.803Z,45.20
2018-05-23T11:52:22.557Z,45.50
2018-05-23T11:54:51.047Z,44.70
2018-05-23T11:57:18.772Z,44.70
2018-05-23T11:59:46.562Z,44.30
2018-05-23T12:02:15.085Z,47.20
2018-05-23T12:04:42.790Z,47.20
2018-05-23T12:07:11.315Z,45.10
2018-05-23T12:09:39.059Z,45.00
2018-05-23T12:12:06.811Z,45.00
2018-05-23T12:14:35.313Z,46.50
2018-05-23T12:17:03.017Z,46.40
2018-05-23T12:19:30.774Z,46.50
2018-05-23T12:21:58.586Z,44.50
2018-05-23T12:24:27.149Z,45.50
2018-05-23T12:26:54.864Z,45.60
2018-05-23T12:29:22.624Z,46.40
2018-05-23T12:31:50.320Z,44.20
2018-05-23T12:34:18.031Z,43.90
2018-05-23T12:36:47.443Z,45.30
2018-05-23T12:39:15.139Z,45.30
2018-05-23T12:41:42.849Z,47.40
2018-05-23T12:44:11.332Z,41.90
2018-05-23T12:46:39.790Z,39.60
2018-05-23T12:49:07.532Z,39.60
2018-05-23T12:51:35.259Z,38.50
2018-05-23T12:54:02.969Z,37.90
2018-05-23T12:56:30.692Z,37.30
2018-05-23T12:58:58.416Z,35.60
2018-05-23T13:01:26.897Z,34.90
2018-05-23T13:03:55.364Z,36.90
2018-05-23T13:06:23.112Z,37.60
2018-05-23T13:08:50.848Z,38.10
2018-05-23T13:13:52.517Z,36.20
2018-05-23T13:16:20.244Z,38.10
2018-05-23T13:18:48.854Z,35.70
2018-05-23T13:21:16.667Z,35.70
2018-05-23T13:23:44.397Z,35.00
2018-05-23T13:26:12.238Z,35.20
2018-05-23T13:28:39.976Z,35.40
2018-05-23T13:31:07.723Z,34.90
2018-05-23T13:33:35.448Z,35.60
2018-05-23T13:36:03.233Z,35.60
2018-05-23T13:38:31.019Z,35.80
2018-05-23T13:40:58.750Z,33.10
2018-05-23T13:43:26.473Z,34.40
2018-05-23T13:45:54.964Z,36.90
2018-05-23T13:48:22.677Z,37.00
2018-05-23T13:50:50.428Z,35.00
2018-05-23T13:53:18.328Z,34.90
2018-05-23T13:55:46.089Z,33.70
2018-05-23T13:58:13.852Z,35.10
2018-05-23T14:00:41.647Z,34.20
2018-05-23T14:03:09.411Z,32.80
2018-05-23T14:05:37.220Z,33.50
2018-05-23T14:08:06.764Z,34.50
2018-05-23T14:10:35.287Z,34.30
2018-05-23T14:13:03.023Z,34.30
2018-05-23T14:15:31.517Z,35.60
2018-05-23T14:17:59.226Z,35.50
2018-05-23T14:20:26.962Z,32.60
2018-05-23T14:22:54.652Z,32.80
2018-05-23T14:25:22.520Z,32.70
2018-05-23T14:27:50.252Z,33.20
2018-05-23T14:30:17.970Z,34.20
2018-05-23T14:32:46.472Z,35.90
2018-05-23T14:35:14.175Z,36.00
2018-05-23T14:37:41.927Z,34.40
2018-05-23T14:40:09.762Z,33.20
2018-05-23T14:42:37.554Z,33.00
2018-05-23T14:45:05.345Z,33.80
2018-05-23T14:47:33.130Z,32.20
2018-05-23T14:50:01.695Z,33.10
2018-05-23T14:52:29.446Z,33.00
2018-05-23T14:54:57.192Z,33.80
2018-05-23T14:57:24.933Z,31.80
2018-05-23T14:59:52.716Z,32.30
2018-05-23T15:02:20.446Z,31.90
2018-05-23T15:04:48.196Z,32.00
2018-05-23T15:07:15.931Z,32.20
2018-05-23T15:09:43.665Z,32.70
2018-05-23T15:12:11.409Z,33.50
2018-05-23T15:14:39.115Z,33.20
2018-05-23T15:17:06.856Z,34.30
2018-05-23T15:19:34.557Z,33.80
2018-05-23T15:22:02.595Z,35.40
2018-05-23T15:24:30.313Z,33.20
2018-05-23T15:26:58.785Z,32.20
2018-05-23T15:29:26.521Z,32.10
2018-05-23T15:31:54.247Z,32.70
2018-05-23T15:34:21.952Z,31.70
2018-05-23T15:36:49.676Z,32.40
2018-05-23T15:39:17.376Z,32.00
2018-05-23T15:41:45.180Z,33.20
2018-05-23T15:44:12.877Z,31.20
2018-05-23T15:46:40.573Z,32.60
2018-05-23T15:49:08.280Z,32.10
2018-05-23T15:51:36.780Z,32.50
2018-05-23T15:54:04.499Z,32.50
2018-05-23T15:56:32.200Z,33.10
2018-05-23T15:58:59.925Z,31.30
2018-05-23T16:01:27.622Z,32.70
2018-05-23T16:03:55.349Z,31.80
2018-05-23T16:06:23.120Z,32.10
2018-05-23T16:08:51.643Z,33.30
2018-05-23T16:11:19.348Z,33.30
2018-05-23T16:13:47.135Z,32.20
2018-05-23T16:16:15.672Z,31.90
2018-05-23T16:18:43.375Z,31.80
2018-05-23T16:21:11.893Z,32.90
2018-05-23T16:23:40.355Z,32.90
2018-05-23T16:26:08.060Z,33.00
2018-05-23T16:28:35.838Z,33.50
2018-05-23T16:31:03.593Z,32.10
2018-05-23T16:33:31.286Z,30.60
2018-05-23T16:35:59.785Z,33.00
2018-05-23T16:38:27.480Z,32.90
2018-05-23T16:40:55.198Z,31.90
2018-05-23T16:43:23.713Z,32.00
2018-05-23T16:45:51.817Z,32.00
2018-05-23T16:48:19.552Z,30.50
2018-05-23T16:50:47.284Z,31.30
2018-05-23T16:53:15.792Z,31.80
2018-05-23T16:55:43.519Z,31.80
2018-05-23T16:58:11.981Z,30.00
2018-05-23T17:00:39.677Z,30.00
2018-05-23T17:03:08.160Z,30.30
2018-05-23T17:05:36.704Z,30.90
2018-05-23T17:08:04.486Z,31.00
2018-05-23T17:10:32.972Z,31.30
2018-05-23T17:13:01.436Z,33.10
2018-05-23T17:15:29.173Z,33.20
2018-05-23T17:17:56.901Z,33.40
2018-05-23T17:20:24.600Z,30.40
2018-05-23T17:22:52.305Z,30.00
2018-05-23T17:25:20.820Z,29.80
2018-05-23T17:27:48.524Z,29.80
2018-05-23T17:30:16.232Z,29.00
2018-05-23T17:32:43.972Z,28.80
2018-05-23T17:35:12.431Z,29.20
2018-05-23T17:37:40.138Z,29.10
2018-05-23T17:40:07.922Z,29.90
2018-05-23T17:42:35.731Z,30.50
2018-05-23T17:45:03.528Z,30.70
2018-05-23T17:47:31.266Z,31.30
2018-05-23T17:49:59.229Z,29.30
2018-05-23T17:52:26.928Z,29.50
2018-05-23T17:54:54.665Z,30.30
2018-05-23T17:57:23.151Z,30.00
2018-05-23T17:59:50.933Z,29.90
2018-05-23T18:02:18.700Z,30.60
2018-05-23T18:04:46.506Z,31.70
2018-05-23T18:07:15.363Z,30.00
2018-05-23T18:09:43.187Z,33.30
2018-05-23T18:12:10.933Z,32.30
2018-05-23T18:14:38.630Z,30.90
2018-05-23T18:17:07.128Z,35.50
2018-05-23T18:19:34.840Z,35.40
2018-05-23T18:22:02.539Z,31.90
2018-05-23T18:24:31.230Z,34.40
2018-05-23T18:26:58.981Z,34.50
2018-05-23T18:29:27.957Z,34.90
2018-05-23T18:31:56.430Z,31.70
2018-05-23T18:34:24.160Z,31.70
2018-05-23T18:36:51.977Z,33.80
2018-05-23T18:39:20.502Z,31.70
2018-05-23T18:41:48.249Z,31.70
2018-05-23T18:44:16.065Z,33.80
2018-05-23T18:46:43.852Z,33.50
2018-05-23T18:49:12.313Z,34.20
2018-05-23T18:51:40.040Z,34.20
2018-05-23T18:54:07.766Z,38.70
2018-05-23T18:56:36.316Z,37.60
2018-05-23T18:59:04.108Z,37.40
2018-05-23T19:01:32.611Z,38.50
2018-05-23T19:04:00.370Z,38.40
2018-05-23T19:06:28.092Z,39.00
2018-05-23T19:08:55.824Z,39.80
2018-05-23T19:11:23.751Z,39.50
2018-05-23T19:13:52.269Z,37.30
2018-05-23T19:16:20.184Z,37.20
2018-05-23T19:18:48.694Z,36.20
2018-05-23T19:21:16.406Z,36.20
2018-05-23T19:23:44.183Z,37.80
2018-05-23T19:26:11.901Z,37.00
2018-05-23T19:28:39.640Z,39.20
2018-05-23T19:31:08.161Z,37.80
2018-05-23T19:33:35.883Z,37.80
2018-05-23T19:36:04.393Z,36.70
2018-05-23T19:38:32.113Z,36.60
2018-05-23T19:40:59.876Z,36.00
2018-05-23T19:43:28.379Z,36.20
2018-05-23T19:45:56.874Z,37.60
2018-05-23T19:48:24.609Z,37.60
2018-05-23T19:50:53.105Z,38.80
2018-05-23T19:53:21.575Z,40.00
2018-05-23T19:55:51.220Z,40.70
2018-05-23T19:58:19.001Z,40.60
2018-05-23T20:00:46.785Z,39.90
2018-05-23T20:03:14.560Z,41.50
2018-05-23T20:05:42.267Z,43.20
2018-05-23T20:08:10.199Z,40.50
2018-05-23T20:10:38.704Z,41.30
2018-05-23T20:13:06.642Z,41.20
2018-05-23T20:15:34.441Z,42.90
2018-05-23T20:18:02.204Z,44.30
2018-05-23T20:20:29.987Z,42.00
2018-05-23T20:22:58.213Z,40.30
2018-05-23T20:25:25.973Z,40.70
2018-05-23T20:27:54.942Z,42.60
2018-05-23T20:30:22.711Z,41.80
2018-05-23T20:32:50.452Z,38.90
2018-05-23T20:35:18.335Z,39.30
2018-05-23T20:37:46.072Z,39.30
2018-05-23T20:40:14.586Z,39.10
2018-05-23T20:42:42.344Z,39.10
2018-05-23T20:45:10.080Z,39.70
2018-05-23T20:47:37.906Z,40.70
2018-05-23T20:50:05.572Z,39.70
2018-05-23T20:52:34.036Z,39.40
2018-05-23T20:55:01.780Z,39.30
2018-05-23T20:57:29.519Z,38.30
2018-05-23T20:59:57.225Z,38.40
2018-05-23T21:02:25.012Z,37.20
2018-05-23T21:04:53.532Z,39.00
2018-05-23T21:07:21.219Z,39.10
2018-05-23T21:09:48.949Z,38.60
2018-05-23T21:12:16.647Z,41.00
2018-05-23T21:14:44.462Z,40.80
2018-05-23T21:17:12.245Z,43.10
2018-05-23T21:19:40.025Z,44.20
2018-05-23T21:22:07.760Z,45.20
2018-05-23T21:24:35.571Z,42.60
2018-05-23T21:27:03.326Z,40.90
2018-05-23T21:29:31.063Z,42.50
2018-05-23T21:31:58.834Z,44.50
2018-05-23T21:34:26.548Z,42.40
2018-05-23T21:36:55.077Z,43.70
2018-05-23T21:39:22.793Z,43.70
2018-05-23T21:41:51.283Z,43.20
2018-05-23T21:44:19.772Z,45.60
2018-05-23T21:46:47.487Z,45.60
2018-05-23T21:49:15.291Z,39.50
2018-05-23T21:51:44.216Z,44.50
2018-05-23T21:54:12.014Z,44.60
2018-05-23T21:56:39.740Z,44.80
2018-05-23T21:59:07.444Z,44.20
2018-05-23T22:01:35.269Z,45.20
2018-05-23T22:04:02.993Z,42.70
2018-05-23T22:06:31.473Z,42.20
2018-05-23T22:08:59.984Z,41.70
2018-05-23T22:11:27.749Z,41.40
2018-05-23T22:13:55.497Z,38.80
2018-05-23T22:16:23.996Z,37.50
2018-05-23T22:18:51.741Z,37.50
2018-05-23T22:21:20.267Z,40.90
2018-05-23T22:23:48.209Z,40.70
2018-05-23T22:26:16.884Z,38.50
2018-05-23T22:28:45.621Z,39.30
2018-05-23T22:31:13.353Z,38.60
2018-05-23T22:33:41.049Z,37.60
2018-05-23T22:36:08.803Z,38.60
2018-05-23T22:38:36.500Z,38.60
2018-05-23T22:41:04.984Z,37.80
2018-05-23T22:43:33.561Z,38.00
2018-05-23T22:46:01.257Z,38.00
2018-05-23T22:48:29.016Z,38.40
2018-05-23T22:50:56.751Z,38.80
2018-05-23T22:53:25.279Z,37.40
2018-05-23T22:55:55.116Z,38.00
2018-05-23T22:58:22.860Z,37.90
2018-05-23T23:00:50.596Z,37.60
2018-05-23T23:03:18.307Z,37.50
2018-05-23T23:05:46.096Z,37.00
2018-05-23T23:08:13.855Z,37.80
2018-05-23T23:10:42.432Z,36.90
2018-05-23T23:13:10.981Z,37.60
2018-05-23T23:15:38.684Z,37.60
2018-05-23T23:18:07.160Z,37.80
2018-05-23T23:20:34.921Z,37.10
2018-05-23T23:23:02.627Z,37.60
2018-05-23T23:25:30.360Z,37.50
2018-05-23T23:27:58.857Z,38.10
2018-05-23T23:30:27.367Z,37.30
2018-05-23T23:32:55.112Z,37.30
2018-05-23T23:35:22.900Z,38.00
2018-05-23T23:37:50.686Z,37.20
2018-05-23T23:40:18.419Z,37.70
2018-05-23T23:42:46.236Z,36.90
2018-05-23T23:45:14.026Z,37.10
2018-05-23T23:47:42.548Z,36.20
2018-05-23T23:50:10.359Z,36.10
2018-05-23T23:52:38.887Z,38.10
2018-05-23T23:55:07.396Z,37.50
2018-05-23T23:57:35.169Z,37.40
